Time;durP1;ratioP1;P1;durP2;ratioP2;P2;SDS_P1;SDS_P2;PMS_P1;PMS_P2;Temp;Humidity;BMP_temperature;BMP_pressure;BME280_temperature;BME280_humidity;BME280_pressure;Samples;Min_cycle;Max_cycle;Signal;HPM_P1;HPM_P2
2024/02/02 00:02:02;;;;;;;15.63;7.17;;;5.70;99.90;;;;;;5037274;28;20453;-76
2024/02/02 00:04:30;;;;;;;17.07;6.83;;;5.70;99.90;;;;;;5035978;28;20462;-76
2024/02/02 00:06:58;;;;;;;22.80;7.07;;;5.70;99.90;;;;;;5036219;28;20804;-76
2024/02/02 00:09:27;;;;;;;26.03;7.20;;;5.70;99.90;;;;;;5035906;28;20455;-76
2024/02/02 00:11:57;;;;;;;22.17;6.37;;;5.70;99.90;;;;;;5035718;28;20563;-76
2024/02/02 00:14:26;;;;;;;20.17;6.97;;;5.70;99.90;;;;;;5037102;28;20460;-76
2024/02/02 00:16:54;;;;;;;21.40;7.63;;;5.70;99.90;;;;;;5035940;28;20825;-76
2024/02/02 00:19:22;;;;;;;16.10;6.97;;;5.80;99.90;;;;;;5037132;28;20432;-76
2024/02/02 00:21:51;;;;;;;19.53;8.03;;;5.70;99.90;;;;;;5036991;28;20438;-76
2024/02/02 00:24:19;;;;;;;20.70;7.93;;;5.70;99.90;;;;;;5035794;28;21050;-76
2024/02/02 00:26:48;;;;;;;15.80;6.33;;;5.70;99.90;;;;;;5036987;28;20447;-76
2024/02/02 00:29:18;;;;;;;14.83;7.67;;;5.70;99.90;;;;;;5036748;28;20430;-76
2024/02/02 00:31:47;;;;;;;15.73;8.10;;;5.70;99.90;;;;;;5035514;28;20438;-76
2024/02/02 00:34:15;;;;;;;22.00;7.77;;;5.70;99.90;;;;;;5035294;28;20481;-76
2024/02/02 00:36:43;;;;;;;22.83;8.10;;;5.70;99.90;;;;;;5036839;28;20442;-76
2024/02/02 00:39:12;;;;;;;19.40;8.47;;;5.70;99.90;;;;;;5035299;28;20450;-76
2024/02/02 00:41:40;;;;;;;24.20;8.60;;;5.70;99.90;;;;;;5035396;28;20794;-76
2024/02/02 00:44:08;;;;;;;20.03;8.70;;;5.70;99.90;;;;;;5035369;28;20468;-76
2024/02/02 00:46:38;;;;;;;20.30;9.20;;;5.80;99.90;;;;;;5035188;28;20446;-76
2024/02/02 00:49:06;;;;;;;24.00;11.23;;;5.70;99.90;;;;;;5036416;28;20433;-76
2024/02/02 00:51:35;;;;;;;18.30;8.90;;;5.80;99.90;;;;;;5035054;28;20450;-76
2024/02/02 00:54:03;;;;;;;24.07;10.70;;;5.80;99.90;;;;;;5034948;28;20487;-76
2024/02/02 00:56:31;;;;;;;22.50;9.40;;;5.80;99.90;;;;;;5034973;28;20861;-77
2024/02/02 00:59:00;;;;;;;24.77;10.50;;;5.80;99.90;;;;;;5036476;28;20478;-76
2024/02/02 01:01:28;;;;;;;20.63;9.73;;;5.80;99.90;;;;;;5034967;28;20963;-77
2024/02/02 01:03:58;;;;;;;17.87;9.53;;;5.80;99.90;;;;;;5034939;28;20474;-77
2024/02/02 01:06:26;;;;;;;23.40;10.30;;;5.80;99.90;;;;;;5036039;28;20446;-77
2024/02/02 01:08:55;;;;;;;17.83;9.43;;;5.80;99.90;;;;;;5035334;28;20514;-76
2024/02/02 01:11:24;;;;;;;21.47;10.70;;;5.80;99.90;;;;;;5034772;28;20849;-77
2024/02/02 01:13:53;;;;;;;25.53;11.57;;;5.80;99.90;;;;;;5035943;28;20516;-76
2024/02/02 01:16:21;;;;;;;22.33;10.47;;;5.80;99.90;;;;;;5034622;28;20451;-76
2024/02/02 01:18:49;;;;;;;20.63;11.20;;;5.90;99.90;;;;;;5035825;28;20543;-76
2024/02/02 01:21:19;;;;;;;24.17;12.03;;;5.90;99.90;;;;;;5034533;28;20447;-76
2024/02/02 01:23:48;;;;;;;22.67;14.00;;;5.90;99.90;;;;;;5035725;28;20554;-76
2024/02/02 01:26:17;;;;;;;20.37;12.23;;;5.90;99.90;;;;;;5034474;28;20547;-76
2024/02/02 01:28:45;;;;;;;26.13;13.90;;;5.90;99.90;;;;;;5036063;28;20446;-76
2024/02/02 01:31:13;;;;;;;27.40;13.90;;;5.90;99.90;;;;;;5034373;28;20892;-76
2024/02/02 01:33:42;;;;;;;28.30;14.00;;;5.90;99.90;;;;;;5036040;28;20523;-76
2024/02/02 01:36:10;;;;;;;23.40;13.03;;;5.90;99.90;;;;;;5035623;28;20452;-76
2024/02/02 01:38:41;;;;;;;24.50;13.57;;;5.90;99.90;;;;;;5035828;28;20472;-76
2024/02/02 01:41:09;;;;;;;22.97;14.37;;;5.90;99.90;;;;;;5034231;28;20445;-76
2024/02/02 01:43:37;;;;;;;24.27;12.67;;;5.90;99.90;;;;;;5035484;28;20453;-76
2024/02/02 01:46:06;;;;;;;25.07;13.03;;;5.90;99.90;;;;;;5035992;28;20448;-76
2024/02/02 01:48:34;;;;;;;30.93;15.60;;;5.90;99.90;;;;;;5034182;28;20957;-76
2024/02/02 01:51:02;;;;;;;21.57;11.67;;;5.90;99.90;;;;;;5034734;28;20970;-76
2024/02/02 01:53:31;;;;;;;26.37;13.50;;;6.00;99.90;;;;;;5034382;28;20898;-76
2024/02/02 01:56:01;;;;;;;27.60;15.73;;;5.90;99.90;;;;;;5035956;28;20479;-77
2024/02/02 01:58:29;;;;;;;24.60;15.00;;;6.00;99.90;;;;;;5034393;28;20466;-77
2024/02/02 02:00:58;;;;;;;21.17;14.93;;;6.00;99.90;;;;;;5035928;28;20441;-77
2024/02/02 02:03:26;;;;;;;24.20;13.40;;;6.00;99.90;;;;;;5034130;28;20467;-76
2024/02/02 02:05:55;;;;;;;24.50;14.43;;;6.00;99.90;;;;;;5033956;28;20458;-77
2024/02/02 02:08:23;;;;;;;22.00;14.60;;;6.00;99.90;;;;;;5033828;28;20452;-76
2024/02/02 02:10:52;;;;;;;27.63;14.10;;;6.00;99.90;;;;;;5033705;28;20866;-76
2024/02/02 02:13:23;;;;;;;25.07;14.90;;;6.00;99.90;;;;;;5034713;28;20551;-76
2024/02/02 02:15:52;;;;;;;25.80;15.73;;;6.00;99.90;;;;;;5033865;28;20437;-76
2024/02/02 02:18:20;;;;;;;27.70;15.53;;;6.00;99.90;;;;;;5033711;28;20840;-77
2024/02/02 02:20:50;;;;;;;21.97;15.40;;;6.00;99.90;;;;;;5033653;28;20508;-76
2024/02/02 02:23:20;;;;;;;27.57;14.77;;;6.00;99.90;;;;;;5035154;28;20481;-76
2024/02/02 02:25:48;;;;;;;27.73;15.03;;;6.00;99.90;;;;;;5033446;28;20499;-76
2024/02/02 02:28:16;;;;;;;25.30;14.70;;;6.00;99.90;;;;;;5033411;28;20484;-76
2024/02/02 02:30:46;;;;;;;29.73;14.70;;;6.00;99.90;;;;;;5034546;28;20439;-76
2024/02/02 02:33:15;;;;;;;31.40;16.63;;;6.00;99.90;;;;;;5033411;28;20492;-76
2024/02/02 02:35:43;;;;;;;23.87;16.60;;;6.00;99.90;;;;;;5033304;28;20455;-76
2024/02/02 02:38:12;;;;;;;24.70;17.90;;;6.00;99.90;;;;;;5033477;28;20455;-76
2024/02/02 02:40:41;;;;;;;28.80;16.40;;;6.00;99.90;;;;;;5033191;28;20451;-76
2024/02/02 02:43:09;;;;;;;27.33;16.10;;;6.00;99.90;;;;;;5033065;28;20461;-76
2024/02/02 02:45:38;;;;;;;26.43;16.60;;;6.10;99.90;;;;;;5033299;28;20480;-76
2024/02/02 02:48:07;;;;;;;29.40;17.47;;;6.00;99.90;;;;;;5033142;28;20985;-76
2024/02/02 02:50:36;;;;;;;30.17;18.20;;;6.00;99.90;;;;;;5033009;28;20864;-76
2024/02/02 02:53:04;;;;;;;32.80;18.10;;;6.00;99.90;;;;;;5033103;28;20851;-77
2024/02/02 02:55:32;;;;;;;28.00;18.80;;;6.00;99.90;;;;;;5032928;28;20523;-77
2024/02/02 02:58:02;;;;;;;25.77;18.80;;;6.00;99.90;;;;;;5033102;28;20953;-77
2024/02/02 03:00:31;;;;;;;26.27;17.97;;;6.00;99.90;;;;;;5032871;28;20982;-76
2024/02/02 03:03:00;;;;;;;30.73;19.63;;;6.00;99.90;;;;;;5032676;28;20451;-76
2024/02/02 03:05:30;;;;;;;30.37;20.23;;;6.00;99.90;;;;;;5032766;28;20493;-76
2024/02/02 03:07:58;;;;;;;26.13;19.20;;;6.00;99.90;;;;;;5032715;28;20488;-76
2024/02/02 03:10:28;;;;;;;29.67;18.20;;;6.10;99.90;;;;;;5033848;28;20436;-76
2024/02/02 03:12:57;;;;;;;23.13;18.20;;;6.10;99.90;;;;;;5033961;28;20460;-76
2024/02/02 03:15:31;;;;;;;24.90;17.83;;;6.10;99.90;;;;;;5032501;28;20468;-76
2024/02/02 03:17:59;;;;;;;26.63;17.50;;;6.10;99.90;;;;;;5032825;28;20462;-76
2024/02/02 03:20:28;;;;;;;28.20;17.03;;;6.10;99.90;;;;;;5033846;28;20476;-76
2024/02/02 03:22:57;;;;;;;23.50;15.70;;;6.10;99.90;;;;;;5032408;28;20500;-76
2024/02/02 03:25:25;;;;;;;26.47;16.60;;;6.10;99.90;;;;;;5033584;28;20463;-76
2024/02/02 03:27:54;;;;;;;25.90;15.87;;;6.10;99.90;;;;;;5032314;28;20448;-76
2024/02/02 03:30:22;;;;;;;29.97;16.07;;;6.10;99.90;;;;;;5033826;28;20449;-76
2024/02/02 03:32:52;;;;;;;25.87;15.43;;;6.10;99.90;;;;;;5033310;28;20427;-76
2024/02/02 03:35:20;;;;;;;24.17;14.30;;;6.10;99.90;;;;;;5032314;28;20590;-76
2024/02/02 03:37:49;;;;;;;23.60;14.77;;;6.10;99.90;;;;;;5033500;28;20437;-76
2024/02/02 03:40:17;;;;;;;26.57;15.73;;;6.10;99.90;;;;;;5032517;28;20490;-76
2024/02/02 03:42:44;;;;;;;23.70;14.53;;;6.10;99.90;;;;;;5033483;28;21079;-76
2024/02/02 03:45:13;;;;;;;21.97;14.27;;;6.10;99.90;;;;;;5032114;28;20448;-76
2024/02/02 03:47:41;;;;;;;23.87;14.10;;;6.10;99.90;;;;;;5032122;28;20485;-76
2024/02/02 03:50:11;;;;;;;22.60;14.03;;;6.10;99.90;;;;;;5032123;28;20446;-76
2024/02/02 03:52:40;;;;;;;23.40;13.50;;;6.10;99.90;;;;;;5032037;28;20820;-76
2024/02/02 03:55:09;;;;;;;24.00;14.00;;;6.10;99.90;;;;;;5033373;28;20485;-76
2024/02/02 03:57:37;;;;;;;27.10;14.70;;;6.10;99.90;;;;;;5033268;28;20528;-76
2024/02/02 04:00:09;;;;;;;25.27;13.50;;;6.10;99.90;;;;;;5032063;28;20495;-76
2024/02/02 04:02:41;;;;;;;23.40;13.73;;;6.10;99.90;;;;;;5032033;28;20545;-76
2024/02/02 04:05:11;;;;;;;22.90;13.57;;;6.10;99.90;;;;;;5033182;28;20462;-76
2024/02/02 04:07:39;;;;;;;23.63;14.70;;;6.10;99.90;;;;;;5031857;28;20463;-76
2024/02/02 04:10:09;;;;;;;21.67;13.57;;;6.10;99.90;;;;;;5033479;28;20470;-76
2024/02/02 04:12:37;;;;;;;25.63;13.93;;;6.10;99.90;;;;;;5031869;28;20461;-76
2024/02/02 04:15:07;;;;;;;24.90;13.57;;;6.10;99.90;;;;;;5031685;28;20488;-76
2024/02/02 04:17:35;;;;;;;16.07;9.67;;;6.10;99.90;;;;;;5033399;28;20443;-76
2024/02/02 04:20:06;;;;;;;26.77;14.60;;;6.10;99.90;;;;;;5032011;28;20451;-76
2024/02/02 04:22:35;;;;;;;21.40;12.80;;;6.10;99.90;;;;;;5031790;28;20821;-76
2024/02/02 04:25:04;;;;;;;20.40;13.17;;;6.10;99.90;;;;;;5031746;28;20468;-76
2024/02/02 04:27:34;;;;;;;21.83;14.47;;;6.20;99.90;;;;;;5031698;28;20542;-76
2024/02/02 04:30:03;;;;;;;21.30;11.90;;;6.20;99.90;;;;;;5031699;28;20457;-76
2024/02/02 04:32:32;;;;;;;20.93;14.40;;;6.20;99.90;;;;;;5031929;28;20449;-76
2024/02/02 04:35:00;;;;;;;21.63;13.93;;;6.20;99.90;;;;;;5031492;28;20483;-76
2024/02/02 04:37:29;;;;;;;21.80;15.40;;;6.20;99.90;;;;;;5032993;28;20441;-76
2024/02/02 04:39:59;;;;;;;22.80;14.93;;;6.20;99.90;;;;;;5031590;28;20945;-76
2024/02/02 04:42:27;;;;;;;22.23;15.40;;;6.20;99.90;;;;;;5031656;28;20436;-76
2024/02/02 04:44:55;;;;;;;19.50;13.83;;;6.20;99.90;;;;;;5033873;28;20804;-76
2024/02/02 04:47:24;;;;;;;23.40;16.57;;;6.20;99.90;;;;;;5036579;28;20938;-76
2024/02/02 04:49:52;;;;;;;26.57;15.80;;;6.20;99.90;;;;;;5036509;28;20957;-76
2024/02/02 04:52:20;;;;;;;28.10;17.30;;;6.20;99.90;;;;;;5035220;28;20448;-76
2024/02/02 04:54:49;;;;;;;19.80;15.13;;;6.20;99.90;;;;;;5035001;28;20488;-76
2024/02/02 04:57:18;;;;;;;25.63;15.57;;;6.20;99.90;;;;;;5036343;28;20436;-76
2024/02/02 04:59:47;;;;;;;19.37;16.13;;;6.20;99.90;;;;;;5036279;28;20450;-76
2024/02/02 05:02:15;;;;;;;27.37;17.17;;;6.20;99.90;;;;;;5035279;28;20812;-76
2024/02/02 05:04:43;;;;;;;21.23;16.00;;;6.20;99.90;;;;;;5036203;28;20452;-76
2024/02/02 05:07:12;;;;;;;25.93;16.77;;;6.20;99.90;;;;;;5034903;28;20456;-76
2024/02/02 05:09:40;;;;;;;24.40;16.40;;;6.20;99.90;;;;;;5034884;28;20542;-76
2024/02/02 05:12:09;;;;;;;22.30;16.00;;;6.20;99.90;;;;;;5036262;28;20451;-76
2024/02/02 05:14:38;;;;;;;22.50;16.47;;;6.20;99.90;;;;;;5036017;28;20641;-76
2024/02/02 05:17:06;;;;;;;28.40;16.10;;;6.20;99.90;;;;;;5036214;28;20834;-77
2024/02/02 05:19:35;;;;;;;27.13;16.93;;;6.20;99.90;;;;;;5036508;28;20782;-76
2024/02/02 05:22:03;;;;;;;23.37;17.47;;;6.30;99.90;;;;;;5034740;28;20440;-76
2024/02/02 05:24:31;;;;;;;20.53;15.90;;;6.30;99.90;;;;;;5035827;28;20462;-76
2024/02/02 05:27:13;;;;;;;24.77;16.30;;;6.30;99.90;;;;;;5036116;28;20432;-76
2024/02/02 05:29:44;;;;;;;22.70;16.83;;;6.30;99.90;;;;;;5034521;28;20439;-76
2024/02/02 05:32:13;;;;;;;24.33;15.20;;;6.30;99.90;;;;;;5034600;28;20459;-77
2024/02/02 05:34:41;;;;;;;20.60;16.20;;;6.30;99.90;;;;;;5034365;28;20467;-77
2024/02/02 05:37:10;;;;;;;22.97;17.10;;;6.30;99.90;;;;;;5034377;28;20454;-77
2024/02/02 05:39:38;;;;;;;22.83;16.23;;;6.30;99.90;;;;;;5035899;28;20444;-77
2024/02/02 05:42:07;;;;;;;22.50;15.80;;;6.30;99.90;;;;;;5034307;28;20449;-77
2024/02/02 05:44:35;;;;;;;22.37;15.57;;;6.30;99.90;;;;;;5035622;28;20543;-76
2024/02/02 05:47:05;;;;;;;20.20;15.17;;;6.30;99.90;;;;;;5034276;28;20476;-76
2024/02/02 05:49:33;;;;;;;23.70;14.90;;;6.30;99.90;;;;;;5034359;28;20453;-76
2024/02/02 05:52:02;;;;;;;19.53;15.80;;;6.30;99.90;;;;;;5035842;28;20439;-76
2024/02/02 05:54:30;;;;;;;19.70;13.60;;;6.30;99.90;;;;;;5034041;28;20568;-76
2024/02/02 05:56:59;;;;;;;19.57;14.00;;;6.30;99.90;;;;;;5034098;28;20447;-77
2024/02/02 05:59:27;;;;;;;17.97;14.40;;;6.30;99.90;;;;;;5035914;28;20439;-77
2024/02/02 06:01:55;;;;;;;20.20;15.03;;;6.30;99.90;;;;;;5034597;28;20456;-77
2024/02/02 06:04:25;;;;;;;20.87;14.07;;;6.40;99.90;;;;;;5034532;28;20464;-77
2024/02/02 06:06:53;;;;;;;19.57;14.97;;;6.30;99.90;;;;;;5034800;28;20960;-76
2024/02/02 06:09:21;;;;;;;18.33;13.53;;;6.40;99.90;;;;;;5035739;28;20445;-77
2024/02/02 06:11:50;;;;;;;22.70;15.83;;;6.40;99.90;;;;;;5034263;28;20500;-77
2024/02/02 06:14:18;;;;;;;20.50;14.93;;;6.40;99.90;;;;;;5035627;28;20807;-77
2024/02/02 06:16:48;;;;;;;20.67;14.20;;;6.40;99.90;;;;;;5034360;28;20468;-77
2024/02/02 06:19:16;;;;;;;18.80;14.20;;;6.40;99.90;;;;;;5034039;28;20813;-77
2024/02/02 06:21:46;;;;;;;22.40;15.13;;;6.40;99.90;;;;;;5033998;28;20448;-77
2024/02/02 06:24:14;;;;;;;22.23;14.47;;;6.40;99.90;;;;;;5035249;28;20457;-77
2024/02/02 06:26:44;;;;;;;21.03;14.40;;;6.40;99.90;;;;;;5034925;28;20852;-76
2024/02/02 06:29:12;;;;;;;14.40;11.10;;;6.40;99.90;;;;;;5033810;28;20463;-77
2024/02/02 06:31:40;;;;;;;24.50;14.37;;;6.40;99.90;;;;;;5034197;28;20481;-77
2024/02/02 06:34:09;;;;;;;21.47;14.33;;;6.40;99.90;;;;;;5034365;28;20471;-77
2024/02/02 06:36:37;;;;;;;20.23;14.37;;;6.50;99.90;;;;;;5033949;28;20472;-77
2024/02/02 06:39:07;;;;;;;22.23;14.50;;;6.50;99.90;;;;;;5033945;28;20495;-77
2024/02/02 06:41:35;;;;;;;21.17;14.37;;;6.50;99.90;;;;;;5035150;28;20447;-77
2024/02/02 06:44:03;;;;;;;23.40;15.57;;;6.50;99.90;;;;;;5033569;28;20590;-77
2024/02/02 06:46:32;;;;;;;24.50;14.33;;;6.50;99.90;;;;;;5033546;28;20453;-77
2024/02/02 06:49:00;;;;;;;18.77;13.53;;;6.50;99.90;;;;;;5033654;28;20438;-77
2024/02/02 06:51:28;;;;;;;25.67;16.10;;;6.50;99.90;;;;;;5033364;28;20548;-77
2024/02/02 06:53:57;;;;;;;19.37;15.40;;;6.50;99.90;;;;;;5033282;28;20469;-76
2024/02/02 06:56:41;;;;;;;21.73;14.60;;;6.50;99.90;;;;;;5033196;28;20478;-76
2024/02/02 06:59:10;;;;;;;23.60;15.80;;;6.50;99.90;;;;;;5033240;28;20433;-77
2024/02/02 07:01:39;;;;;;;27.50;16.37;;;6.50;99.90;;;;;;5033561;28;20498;-77
2024/02/02 07:04:10;;;;;;;21.83;15.33;;;6.50;99.90;;;;;;5034779;28;20464;-77
2024/02/02 07:06:39;;;;;;;23.20;16.10;;;6.50;99.90;;;;;;5033038;28;20942;-77
2024/02/02 07:09:22;;;;;;;23.00;16.50;;;6.50;99.90;;;;;;5032777;28;20446;-77
2024/02/02 07:12:03;;;;;;;22.33;16.10;;;6.50;99.90;;;;;;5033399;28;20551;-77
2024/02/02 07:14:46;;;;;;;22.80;16.40;;;6.50;99.90;;;;;;5033308;28;20517;-77
2024/02/02 07:17:34;;;;;;;24.67;17.20;;;6.50;99.90;;;;;;5034301;28;20488;-77
2024/02/02 07:20:08;;;;;;;26.90;16.57;;;6.60;99.90;;;;;;5035056;28;20778;-76
2024/02/02 07:22:39;;;;;;;25.67;16.90;;;6.60;99.90;;;;;;5034637;28;20435;-77
2024/02/02 07:25:09;;;;;;;22.80;17.83;;;6.60;99.90;;;;;;5034475;28;20466;-77
2024/02/02 07:28:03;;;;;;;24.23;17.67;;;6.60;99.90;;;;;;5032903;28;20483;-77
2024/02/02 07:30:53;;;;;;;21.13;17.73;;;6.60;99.90;;;;;;5029350;28;20457;-77
2024/02/02 07:33:27;;;;;;;28.23;18.50;;;6.60;99.90;;;;;;5032937;28;20473;-77
2024/02/02 07:35:58;;;;;;;23.97;17.80;;;6.60;99.90;;;;;;5032944;28;21099;-77
2024/02/02 07:38:51;;;;;;;22.63;18.73;;;6.60;99.90;;;;;;5033927;28;20439;-77
2024/02/02 07:41:24;;;;;;;28.30;19.10;;;6.60;99.90;;;;;;5033047;28;20450;-77
2024/02/02 07:43:55;;;;;;;22.70;19.03;;;6.60;99.90;;;;;;5032550;28;20476;-77
2024/02/02 07:46:24;;;;;;;24.40;18.90;;;6.60;99.90;;;;;;5032733;28;20456;-77
2024/02/02 07:48:53;;;;;;;20.60;18.10;;;6.60;99.90;;;;;;5032776;28;20455;-77
2024/02/02 07:51:24;;;;;;;24.60;18.70;;;6.60;99.90;;;;;;5032723;28;20445;-77
2024/02/02 07:53:53;;;;;;;23.50;19.10;;;6.70;99.90;;;;;;5034221;28;20509;-76
2024/02/02 07:56:24;;;;;;;20.70;18.50;;;6.70;99.90;;;;;;5032373;28;20560;-76
2024/02/02 07:58:55;;;;;;;20.93;18.70;;;6.70;99.90;;;;;;5032502;28;20449;-77
2024/02/02 08:01:23;;;;;;;22.00;18.63;;;6.70;99.90;;;;;;5032592;28;20978;-77
2024/02/02 08:03:52;;;;;;;20.03;17.87;;;6.70;99.90;;;;;;5032314;28;20463;-77
2024/02/02 08:06:21;;;;;;;24.13;20.10;;;6.70;99.90;;;;;;5032536;28;20449;-77
2024/02/02 08:08:50;;;;;;;23.33;18.90;;;6.70;99.90;;;;;;5032253;28;20536;-77
2024/02/02 08:11:18;;;;;;;20.60;18.57;;;6.70;99.90;;;;;;5033510;28;20449;-77
2024/02/02 08:13:47;;;;;;;25.30;19.27;;;6.80;99.90;;;;;;5032287;28;20507;-77
2024/02/02 08:16:16;;;;;;;25.17;18.80;;;6.80;99.90;;;;;;5033463;28;20568;-76
2024/02/02 08:18:44;;;;;;;23.93;19.17;;;6.80;99.90;;;;;;5033901;28;20446;-76
2024/02/02 08:21:13;;;;;;;27.03;19.97;;;6.80;99.90;;;;;;5036394;28;20458;-77
2024/02/02 08:23:43;;;;;;;25.80;18.90;;;6.80;99.90;;;;;;5036134;28;20469;-77
2024/02/02 08:26:12;;;;;;;24.40;18.30;;;6.90;99.90;;;;;;5036558;28;20456;-76
2024/02/02 08:28:42;;;;;;;24.97;18.77;;;6.80;99.90;;;;;;5037261;28;20900;-77
2024/02/02 08:31:23;;;;;;;27.00;19.60;;;6.80;99.90;;;;;;5036251;28;20450;-77
2024/02/02 08:33:52;;;;;;;26.57;20.10;;;6.80;99.90;;;;;;5036363;28;20477;-77
2024/02/02 08:36:20;;;;;;;24.80;17.70;;;6.80;99.90;;;;;;5036002;28;20557;-77
2024/02/02 08:38:49;;;;;;;23.73;19.33;;;6.80;99.90;;;;;;5035940;28;20450;-77
2024/02/02 08:41:17;;;;;;;22.60;17.97;;;6.80;99.90;;;;;;5036128;28;20453;-77
2024/02/02 08:43:47;;;;;;;29.87;19.13;;;6.80;99.90;;;;;;5037059;28;20457;-77
2024/02/02 08:46:20;;;;;;;25.57;19.10;;;6.90;99.90;;;;;;5037535;28;20457;-77
2024/02/02 08:48:51;;;;;;;24.93;18.43;;;6.80;99.90;;;;;;5035869;28;20442;-77
2024/02/02 08:51:53;;;;;;;22.80;18.60;;;6.90;99.90;;;;;;5035913;28;20602;-77
2024/02/02 08:54:47;;;;;;;23.93;19.23;;;6.90;99.90;;;;;;5037043;28;20468;-77
2024/02/02 08:57:33;;;;;;;23.20;18.87;;;6.90;99.90;;;;;;5027327;28;20874;-77
2024/02/02 09:00:11;;;;;;;23.50;18.60;;;6.90;99.90;;;;;;5037090;28;20472;-77
2024/02/02 09:02:56;;;;;;;23.87;19.30;;;6.90;99.90;;;;;;5037320;28;20826;-76
2024/02/02 09:05:50;;;;;;;27.70;19.87;;;6.90;99.90;;;;;;5036792;28;20431;-77
2024/02/02 09:08:31;;;;;;;22.60;19.90;;;6.90;99.90;;;;;;5035342;28;20474;-76
2024/02/02 09:11:21;;;;;;;26.63;19.37;;;6.90;99.90;;;;;;5036777;28;20419;-77
2024/02/02 09:14:00;;;;;;;25.57;20.33;;;7.00;99.90;;;;;;5035200;28;20525;-77
2024/02/02 09:16:41;;;;;;;25.97;20.33;;;7.00;99.90;;;;;;5035305;28;20495;-76
2024/02/02 09:19:26;;;;;;;25.90;18.67;;;7.00;99.90;;;;;;5035229;28;20440;-77
2024/02/02 09:21:58;;;;;;;26.07;20.30;;;7.00;99.90;;;;;;5035026;28;20454;-76
2024/02/02 09:24:39;;;;;;;27.00;19.60;;;7.00;99.90;;;;;;5035232;28;20485;-77
2024/02/02 09:27:12;;;;;;;24.60;19.30;;;7.00;99.90;;;;;;5037115;28;20427;-76
2024/02/02 09:29:45;;;;;;;20.03;17.60;;;7.00;99.90;;;;;;5036569;28;20429;-77
2024/02/02 09:32:15;;;;;;;28.10;20.93;;;7.00;99.90;;;;;;5035589;28;20999;-78
2024/02/02 09:34:43;;;;;;;24.43;20.00;;;7.00;99.90;;;;;;5035754;28;21013;-77
2024/02/02 09:37:22;;;;;;;28.50;20.67;;;7.00;99.90;;;;;;5035639;28;20480;-77
2024/02/02 09:39:57;;;;;;;29.50;21.50;;;7.00;99.90;;;;;;5036184;28;20442;-78
2024/02/02 09:42:40;;;;;;;24.13;19.93;;;7.00;99.90;;;;;;5035308;28;20546;-78
2024/02/02 09:45:13;;;;;;;27.17;19.57;;;7.00;99.90;;;;;;5035237;28;20466;-77
2024/02/02 09:47:54;;;;;;;20.70;18.20;;;7.10;99.90;;;;;;5035559;28;20500;-77
2024/02/02 09:50:34;;;;;;;28.53;21.33;;;7.10;99.90;;;;;;5034988;28;20485;-77
2024/02/02 09:53:24;;;;;;;23.80;19.63;;;7.10;99.90;;;;;;5034906;28;20454;-77
2024/02/02 09:56:01;;;;;;;28.97;21.70;;;7.10;99.90;;;;;;5036352;28;20419;-77
2024/02/02 09:58:39;;;;;;;23.90;18.10;;;7.10;99.90;;;;;;5036267;28;20455;-77
2024/02/02 10:01:19;;;;;;;24.57;19.70;;;7.20;99.90;;;;;;5034827;28;20438;-77
2024/02/02 10:03:58;;;;;;;23.80;18.97;;;7.20;99.90;;;;;;5034711;28;20503;-77
2024/02/02 10:06:39;;;;;;;25.40;20.27;;;7.20;99.90;;;;;;5035208;28;20446;-77
2024/02/02 10:09:26;;;;;;;23.13;19.60;;;7.20;99.90;;;;;;5034970;28;20439;-77
2024/02/02 10:12:23;;;;;;;21.53;19.23;;;7.20;99.90;;;;;;5035252;28;20449;-77
2024/02/02 10:15:39;;;;;;;31.00;19.50;;;7.20;99.90;;;;;;5034386;28;21003;-77
2024/02/02 10:18:30;;;;;;;29.03;21.57;;;7.30;99.90;;;;;;5015707;28;20868;-77
2024/02/02 10:21:04;;;;;;;25.50;19.00;;;7.30;99.90;;;;;;5034303;28;21009;-77
2024/02/02 10:23:54;;;;;;;25.70;20.00;;;7.30;99.90;;;;;;5034534;28;21132;-77
2024/02/02 10:26:56;;;;;;;24.17;21.57;;;7.30;99.90;;;;;;5034417;28;20955;-77
2024/02/02 10:29:38;;;;;;;25.37;20.03;;;7.30;99.90;;;;;;5034398;28;20938;-77
2024/02/02 10:32:25;;;;;;;24.63;20.20;;;7.30;99.90;;;;;;5035746;28;20839;-77
2024/02/02 10:35:17;;;;;;;21.77;18.47;;;7.30;99.90;;;;;;5034029;28;20470;-76
2024/02/02 10:37:49;;;;;;;25.90;17.67;;;7.40;99.90;;;;;;5017569;28;20481;-77
2024/02/02 10:40:31;;;;;;;22.13;18.60;;;7.40;99.90;;;;;;5035065;28;20453;-77
2024/02/02 10:43:17;;;;;;;24.47;18.60;;;7.40;99.90;;;;;;5032914;28;20785;-77
2024/02/02 10:45:59;;;;;;;28.00;18.87;;;7.40;99.90;;;;;;5033776;28;20449;-77
2024/02/02 10:48:58;;;;;;;23.20;18.63;;;7.50;99.90;;;;;;5033772;28;20443;-77
2024/02/02 10:51:35;;;;;;;28.60;19.27;;;7.50;99.90;;;;;;5035046;28;20431;-77
2024/02/02 10:54:20;;;;;;;26.83;19.93;;;7.50;99.90;;;;;;5035284;28;20541;-77
2024/02/02 10:57:04;;;;;;;29.20;18.37;;;7.50;99.90;;;;;;5033741;28;20447;-77
2024/02/02 10:59:44;;;;;;;20.70;18.50;;;7.60;99.90;;;;;;5035277;28;20817;-77
2024/02/02 11:02:21;;;;;;;25.77;19.63;;;7.50;99.90;;;;;;5033606;28;20517;-77
2024/02/02 11:04:57;;;;;;;31.80;18.90;;;7.60;99.90;;;;;;5033237;28;20974;-77
2024/02/02 11:07:29;;;;;;;24.30;18.93;;;7.60;99.90;;;;;;5033575;28;20862;-77
2024/02/02 11:10:00;;;;;;;27.83;20.53;;;7.60;99.90;;;;;;5035237;28;20448;-77
2024/02/02 11:12:39;;;;;;;27.30;19.63;;;7.60;99.90;;;;;;5033270;28;20464;-77
2024/02/02 11:15:25;;;;;;;24.90;20.37;;;7.60;99.90;;;;;;5033932;28;20475;-77
2024/02/02 11:18:09;;;;;;;23.43;19.53;;;7.70;99.90;;;;;;5035011;28;20885;-77
2024/02/02 11:20:50;;;;;;;21.73;17.57;;;7.70;99.90;;;;;;5033065;28;20443;-76
2024/02/02 11:23:29;;;;;;;26.87;17.03;;;7.70;99.90;;;;;;5032835;28;20520;-77
2024/02/02 11:26:05;;;;;;;21.17;16.47;;;7.70;99.90;;;;;;5033033;28;20442;-77
2024/02/02 11:28:40;;;;;;;22.57;18.10;;;7.70;99.90;;;;;;5032906;28;21058;-76
2024/02/02 11:31:16;;;;;;;26.67;17.43;;;7.80;99.90;;;;;;5033084;28;20458;-77
2024/02/02 11:33:56;;;;;;;20.53;16.80;;;7.80;99.90;;;;;;5032820;28;20495;-77
2024/02/02 11:36:45;;;;;;;22.43;15.50;;;7.80;99.90;;;;;;5032808;28;20500;-77
2024/02/02 11:39:27;;;;;;;26.50;15.57;;;7.80;99.90;;;;;;5032820;28;20521;-77
2024/02/02 11:41:58;;;;;;;22.93;15.50;;;7.80;99.90;;;;;;5033202;28;20447;-77
2024/02/02 11:44:28;;;;;;;21.40;14.60;;;7.80;99.90;;;;;;5033026;28;20505;-77
2024/02/02 11:46:59;;;;;;;22.20;16.03;;;7.90;99.90;;;;;;5033203;28;20461;-77
2024/02/02 11:49:33;;;;;;;23.40;15.10;;;7.90;99.90;;;;;;5033130;28;20456;-77
2024/02/02 11:52:05;;;;;;;27.80;15.27;;;7.90;99.90;;;;;;5032914;28;20435;-77
2024/02/02 11:54:43;;;;;;;19.40;16.13;;;7.90;99.90;;;;;;5032297;28;20561;-77
2024/02/02 11:57:16;;;;;;;20.10;16.70;;;8.00;99.90;;;;;;5033701;28;20426;-77
2024/02/02 11:59:48;;;;;;;17.57;13.30;;;8.00;99.90;;;;;;5033823;28;20550;-77
2024/02/02 12:02:50;;;;;;;24.00;16.00;;;8.00;99.90;;;;;;5033890;28;20425;-77
2024/02/02 12:05:22;;;;;;;20.03;16.90;;;8.00;99.90;;;;;;5033914;28;20427;-76
2024/02/02 12:07:57;;;;;;;24.27;16.90;;;8.10;99.90;;;;;;5032255;28;20529;-77
2024/02/02 12:10:29;;;;;;;22.35;17.20;;;8.10;99.90;;;;;;5033508;28;20480;-77
2024/02/02 12:13:02;;;;;;;19.47;17.33;;;8.20;99.90;;;;;;5032243;28;20311;-77
2024/02/02 12:15:31;;;;;;;26.40;16.97;;;8.20;99.90;;;;;;5033793;28;20427;-77
2024/02/02 12:18:01;;;;;;;22.03;17.67;;;8.20;99.90;;;;;;5033453;28;20471;-77
2024/02/02 12:20:32;;;;;;;27.30;18.00;;;8.20;99.90;;;;;;5032435;28;20866;-77
2024/02/02 12:23:01;;;;;;;19.40;15.73;;;8.30;99.90;;;;;;5032411;28;20945;-77
2024/02/02 12:25:29;;;;;;;23.57;16.53;;;8.30;99.90;;;;;;5032580;28;20501;-77
2024/02/02 12:27:58;;;;;;;25.27;16.63;;;8.30;99.90;;;;;;5032263;28;20956;-77
2024/02/02 12:30:27;;;;;;;24.23;17.60;;;8.30;99.90;;;;;;5032145;28;20453;-77
2024/02/02 12:32:57;;;;;;;22.23;18.10;;;8.40;99.90;;;;;;5032339;28;20550;-77
2024/02/02 12:35:27;;;;;;;23.60;18.53;;;8.40;99.90;;;;;;5032375;28;20445;-77
2024/02/02 12:37:56;;;;;;;22.70;16.93;;;8.40;99.90;;;;;;5033989;28;20411;-77
2024/02/02 12:40:25;;;;;;;24.30;17.80;;;8.50;99.90;;;;;;5032488;28;20466;-77
2024/02/02 12:42:57;;;;;;;25.00;18.50;;;8.50;99.90;;;;;;5033499;28;20502;-77
2024/02/02 12:45:25;;;;;;;24.00;18.20;;;8.50;99.90;;;;;;5033738;28;20427;-77
2024/02/02 12:47:54;;;;;;;22.93;18.37;;;8.50;99.90;;;;;;5032125;28;20451;-77
2024/02/02 12:50:24;;;;;;;21.53;17.13;;;8.50;99.90;;;;;;5032003;28;20508;-77
2024/02/02 12:52:54;;;;;;;28.50;17.70;;;8.60;99.90;;;;;;5031708;28;20454;-77
2024/02/02 12:55:22;;;;;;;22.60;17.13;;;8.60;99.90;;;;;;5033457;28;20451;-77
2024/02/02 12:57:51;;;;;;;20.63;17.80;;;8.60;99.90;;;;;;5031655;28;20451;-77
2024/02/02 13:00:21;;;;;;;21.57;18.17;;;8.60;99.90;;;;;;5031552;28;20561;-76
2024/02/02 13:02:53;;;;;;;21.13;17.70;;;8.60;99.90;;;;;;5031645;28;20541;-77
2024/02/02 13:05:26;;;;;;;18.67;16.60;;;8.60;99.90;;;;;;5032699;28;20517;-77